Time;durP1;ratioP1;P1;durP2;ratioP2;P2;SDS_P1;SDS_P2;PMS_P1;PMS_P2;Temp;Humidity;BMP_temperature;BMP_pressure;BME280_temperature;BME280_humidity;BME280_pressure;Samples;Min_cycle;Max_cycle;Signal;HPM_P1;HPM_P2
2023/03/10 00:00:36;;;;;;;9.32;4.55;;;;;;;;;;5033126;28;20451;-76
2023/03/10 00:03:01;;;;;;;8.98;4.22;;;;;;;;;;5016115;28;20033;-76
2023/03/10 00:05:27;;;;;;;8.25;4.15;;;;;;;;;;5032815;28;20075;-76
2023/03/10 00:07:52;;;;;;;9.68;4.43;;;;;;;;;;5048608;28;20409;-76
2023/03/10 00:10:18;;;;;;;6.97;4.68;;;;;;;;;;5050368;28;20037;-76
2023/03/10 00:12:43;;;;;;;7.10;4.00;;;;;;;;;;5050713;28;20559;-77
2023/03/10 00:15:09;;;;;;;8.85;4.45;;;;;;;;;;5032854;28;20029;-76
2023/03/10 00:17:34;;;;;;;9.27;4.63;;;;;;;;;;5032729;28;20119;-77
2023/03/10 00:20:00;;;;;;;8.30;4.20;;;;;;;;;;5032369;28;20021;-77
2023/03/10 00:22:25;;;;;;;6.82;4.35;;;;;;;;;;5016329;28;20037;-77
2023/03/10 00:24:51;;;;;;;10.50;4.72;;;;;;;;;;5032217;28;20025;-77
2023/03/10 00:27:16;;;;;;;8.85;4.07;;;;;;;;;;5033100;28;20089;-77
2023/03/10 00:29:42;;;;;;;10.65;5.15;;;;;;;;;;5018653;28;20091;-77
2023/03/10 00:32:07;;;;;;;11.23;4.70;;;;;;;;;;5054659;28;20040;-78
2023/03/10 00:34:34;;;;;;;8.27;5.00;;;;;;;;;;5054327;28;20500;-77
2023/03/10 00:36:59;;;;;;;9.50;5.07;;;;;;;;;;5036582;28;20068;-77
2023/03/10 00:39:25;;;;;;;9.52;5.18;;;;;;;;;;5054005;28;20106;-77
2023/03/10 00:41:50;;;;;;;10.60;5.68;;;;;;;;;;5054087;28;20037;-77
2023/03/10 00:44:16;;;;;;;9.07;5.85;;;;;;;;;;5036427;28;20025;-77
2023/03/10 00:46:41;;;;;;;11.30;6.65;;;;;;;;;;5036096;28;20120;-77
2023/03/10 00:49:09;;;;;;;14.68;7.57;;;;;;;;;;5036124;28;20051;-77
2023/03/10 00:51:34;;;;;;;13.70;7.38;;;;;;;;;;5035982;28;20037;-76
2023/03/10 00:54:02;;;;;;;14.68;7.50;;;;;;;;;;5053773;28;20136;-76
2023/03/10 00:56:28;;;;;;;15.52;9.70;;;;;;;;;;5035951;28;20044;-76
2023/03/10 00:58:54;;;;;;;17.20;9.73;;;;;;;;;;5036345;28;20132;-76
2023/03/10 01:01:20;;;;;;;18.80;10.70;;;;;;;;;;5035685;28;20448;-76
2023/03/10 01:03:45;;;;;;;17.25;9.27;;;;;;;;;;5036180;28;20115;-76
2023/03/10 01:06:11;;;;;;;15.20;9.15;;;;;;;;;;5053310;28;20033;-76
2023/03/10 01:08:36;;;;;;;16.90;10.10;;;;;;;;;;5035851;28;20033;-77
2023/03/10 01:11:02;;;;;;;18.38;10.55;;;;;;;;;;5019542;28;20036;-76
2023/03/10 01:13:27;;;;;;;14.25;9.23;;;;;;;;;;5035604;28;20031;-76
2023/03/10 01:15:53;;;;;;;15.93;9.27;;;;;;;;;;5053439;28;20025;-75
2023/03/10 01:18:18;;;;;;;15.50;7.57;;;;;;;;;;5035740;28;20053;-78
2023/03/10 01:20:44;;;;;;;;;;;;;;;;;;5035701;28;20082;-77
2023/03/10 01:23:16;;;;;;;15.57;8.70;;;;;;;;;;5035850;28;20003;-78
2023/03/10 01:25:41;;;;;;;17.02;8.57;;;;;;;;;;5035269;28;20040;-78
2023/03/10 01:28:07;;;;;;;11.30;7.45;;;;;;;;;;5053181;28;20025;-77
2023/03/10 01:30:32;;;;;;;13.98;8.45;;;;;;;;;;5017258;28;20076;-77
2023/03/10 01:32:58;;;;;;;13.05;8.43;;;;;;;;;;5053556;28;20101;-78
2023/03/10 01:35:24;;;;;;;15.48;8.57;;;;;;;;;;5052819;28;20500;-77
2023/03/10 01:37:49;;;;;;;;;;;;;;;;;;5019636;28;20500;-77
2023/03/10 01:40:17;;;;;;;11.68;7.22;;;;;;;;;;5052063;28;19974;-77
2023/03/10 01:42:43;;;;;;;10.88;7.05;;;;;;;;;;5019242;28;20772;-78
2023/03/10 01:45:10;;;;;;;19.08;8.00;;;;;;;;;;5018810;28;20029;-77
2023/03/10 01:47:35;;;;;;;13.55;7.35;;;;;;;;;;5035013;28;20048;-78
2023/03/10 01:50:03;;;;;;;12.45;6.72;;;;;;;;;;5035123;28;20048;-78
2023/03/10 01:52:29;;;;;;;11.30;7.00;;;;;;;;;;5018941;28;20116;-78
2023/03/10 01:54:59;;;;;;;12.38;6.72;;;;;;;;;;5028780;28;20053;-77
2023/03/10 01:57:26;;;;;;;11.43;6.80;;;;;;;;;;5035209;28;20475;-75
2023/03/10 01:59:52;;;;;;;12.85;7.50;;;;;;;;;;5018612;28;20032;-76
2023/03/10 02:02:17;;;;;;;12.77;6.82;;;;;;;;;;5051756;28;20036;-75
2023/03/10 02:04:44;;;;;;;10.80;6.28;;;;;;;;;;5034372;28;20056;-75
2023/03/10 02:07:09;;;;;;;;;;;;;;;;;;5052995;28;20020;-76
2023/03/10 02:09:36;;;;;;;16.38;6.80;;;;;;;;;;5050767;28;19912;-79
2023/03/10 02:12:02;;;;;;;11.82;6.43;;;;;;;;;;5051399;28;20078;-78
2023/03/10 02:14:28;;;;;;;11.75;6.47;;;;;;;;;;5052122;28;20435;-77
2023/03/10 02:16:53;;;;;;;9.88;5.88;;;;;;;;;;5052273;28;20033;-78
2023/03/10 02:19:39;;;;;;;9.70;6.35;;;;;;;;;;5051006;28;20480;-78
2023/03/10 02:22:05;;;;;;;11.15;6.63;;;;;;;;;;5050270;28;20032;-77
2023/03/10 02:24:30;;;;;;;;;;;;;;;;;;5052561;28;20033;-77
2023/03/10 02:27:00;;;;;;;13.60;6.80;;;;;;;;;;5052405;28;19913;-78
2023/03/10 02:29:56;;;;;;;11.90;6.53;;;;;;;;;;5030803;28;20032;-77
2023/03/10 02:32:21;;;;;;;10.27;6.35;;;;;;;;;;4992530;28;20125;-77
2023/03/10 02:34:47;;;;;;;9.70;6.40;;;;;;;;;;5042118;28;20125;-77
2023/03/10 02:37:23;;;;;;;12.65;6.53;;;;;;;;;;5033644;28;20149;-78
2023/03/10 02:39:49;;;;;;;12.13;6.50;;;;;;;;;;5052267;28;20049;-77
2023/03/10 02:42:14;;;;;;;9.75;6.18;;;;;;;;;;5050092;28;20032;-77
2023/03/10 02:44:40;;;;;;;10.98;6.63;;;;;;;;;;5034269;28;20025;-77
2023/03/10 02:47:05;;;;;;;11.95;6.47;;;;;;;;;;5051637;28;20796;-77
2023/03/10 02:49:31;;;;;;;10.68;6.72;;;;;;;;;;5050569;28;20036;-78
2023/03/10 02:51:56;;;;;;;9.70;6.63;;;;;;;;;;5033526;28;20116;-77
2023/03/10 02:54:22;;;;;;;11.27;6.60;;;;;;;;;;5033634;28;20465;-78
2023/03/10 02:56:47;;;;;;;11.27;6.22;;;;;;;;;;5051488;28;20039;-78
2023/03/10 02:59:15;;;;;;;10.88;6.80;;;;;;;;;;5050152;28;20082;-78
2023/03/10 03:01:45;;;;;;;11.18;7.00;;;;;;;;;;5050107;28;20055;-78
2023/03/10 03:04:11;;;;;;;11.15;6.47;;;;;;;;;;5033657;28;20052;-78
2023/03/10 03:06:38;;;;;;;13.27;7.13;;;;;;;;;;5050077;28;20112;-78
2023/03/10 03:09:04;;;;;;;10.32;6.55;;;;;;;;;;5050128;28;20041;-77
2023/03/10 03:11:30;;;;;;;10.90;6.55;;;;;;;;;;5033650;28;20033;-78
2023/03/10 03:13:55;;;;;;;12.88;6.65;;;;;;;;;;5033440;28;20037;-76
2023/03/10 03:16:22;;;;;;;11.10;6.70;;;;;;;;;;5049278;28;20028;-76
2023/03/10 03:18:52;;;;;;;11.52;6.93;;;;;;;;;;5034540;28;20029;-78
2023/03/10 03:21:20;;;;;;;13.27;7.68;;;;;;;;;;5049695;28;20029;-78
2023/03/10 03:23:46;;;;;;;12.80;6.82;;;;;;;;;;5050111;28;20037;-78
2023/03/10 03:26:16;;;;;;;12.77;7.57;;;;;;;;;;5033241;28;20036;-76
2023/03/10 03:28:43;;;;;;;10.70;6.47;;;;;;;;;;5049816;28;20168;-76
2023/03/10 03:31:12;;;;;;;10.80;6.55;;;;;;;;;;5049541;28;20016;-76
2023/03/10 03:33:37;;;;;;;10.75;6.05;;;;;;;;;;5032932;28;20047;-78
2023/03/10 03:36:03;;;;;;;8.90;6.03;;;;;;;;;;5049502;28;20017;-77
2023/03/10 03:38:28;;;;;;;10.90;6.18;;;;;;;;;;5032853;28;20037;-78
2023/03/10 03:40:54;;;;;;;11.48;7.20;;;;;;;;;;5050764;28;20048;-78
2023/03/10 03:43:20;;;;;;;9.05;5.45;;;;;;;;;;5049775;28;20514;-77
2023/03/10 03:45:46;;;;;;;10.73;6.93;;;;;;;;;;5032892;28;20064;-78
2023/03/10 03:48:13;;;;;;;10.00;6.30;;;;;;;;;;5049578;28;20499;-78
2023/03/10 03:50:40;;;;;;;9.63;6.60;;;;;;;;;;5049665;28;20032;-77
2023/03/10 03:53:15;;;;;;;11.65;6.82;;;;;;;;;;5049151;28;20397;-77
2023/03/10 03:55:40;;;;;;;14.40;8.70;;;;;;;;;;5033264;28;20039;-78
2023/03/10 03:58:06;;;;;;;9.35;5.93;;;;;;;;;;5050673;28;20436;-78
2023/03/10 04:00:34;;;;;;;9.57;5.68;;;;;;;;;;5032919;28;20064;-79
2023/03/10 04:03:04;;;;;;;12.45;6.82;;;;;;;;;;5018747;28;20029;-78
2023/03/10 04:05:31;;;;;;;9.32;5.50;;;;;;;;;;5023324;28;20033;-78
2023/03/10 04:07:56;;;;;;;8.07;5.63;;;;;;;;;;5039725;28;20024;-78
2023/03/10 04:10:23;;;;;;;;;;;;;;;;;;5039420;28;20055;-78
2023/03/10 04:12:48;;;;;;;9.50;5.53;;;;;;;;;;5039295;28;19908;-78
2023/03/10 04:15:14;;;;;;;8.10;5.22;;;;;;;;;;5037667;28;20040;-77
2023/03/10 04:17:40;;;;;;;8.30;5.55;;;;;;;;;;5036266;28;20028;-78
2023/03/10 04:20:08;;;;;;;8.63;5.65;;;;;;;;;;5039737;28;20056;-78
2023/03/10 04:22:36;;;;;;;7.80;5.05;;;;;;;;;;5023008;28;20032;-77
2023/03/10 04:25:02;;;;;;;;;;;;;;;;;;5039450;28;20033;-78
2023/03/10 04:27:27;;;;;;;10.40;5.30;;;;;;;;;;5038409;28;20015;-79
2023/03/10 04:29:53;;;;;;;8.05;4.97;;;;;;;;;;5034827;28;20038;-79
2023/03/10 04:32:19;;;;;;;;;;;;;;;;;;5013242;28;20072;-78
2023/03/10 04:34:44;;;;;;;7.80;5.13;;;;;;;;;;5021048;28;19952;-78
2023/03/10 04:37:10;;;;;;;9.52;5.00;;;;;;;;;;5034910;28;20119;-77
2023/03/10 04:39:36;;;;;;;8.50;5.47;;;;;;;;;;5019514;28;20033;-78
2023/03/10 04:42:02;;;;;;;7.25;5.20;;;;;;;;;;5017835;28;20025;-79
2023/03/10 04:44:28;;;;;;;11.38;5.47;;;;;;;;;;5039107;28;20532;-76
2023/03/10 04:46:54;;;;;;;7.85;5.07;;;;;;;;;;5006540;28;20036;-77
2023/03/10 04:49:19;;;;;;;11.02;5.50;;;;;;;;;;5023810;28;20036;-77
2023/03/10 04:51:46;;;;;;;8.52;5.85;;;;;;;;;;5039480;28;20033;-79
2023/03/10 04:54:12;;;;;;;;;;;;;;;;;;5030726;28;20072;-78
2023/03/10 04:56:38;;;;;;;9.68;5.38;;;;;;;;;;5058475;28;19961;-78
2023/03/10 04:59:04;;;;;;;9.05;5.50;;;;;;;;;;5058334;28;20028;-78
2023/03/10 05:01:31;;;;;;;9.23;5.40;;;;;;;;;;5059102;28;20119;-78
2023/03/10 05:04:01;;;;;;;14.88;8.93;;;;;;;;;;5034841;28;20407;-77
2023/03/10 05:06:27;;;;;;;9.80;6.22;;;;;;;;;;5037659;28;20017;-78
2023/03/10 05:09:19;;;;;;;8.10;5.07;;;;;;;;;;5033276;28;20056;-78
2023/03/10 05:11:49;;;;;;;7.68;4.72;;;;;;;;;;5045803;28;20506;-78
2023/03/10 05:14:16;;;;;;;8.52;5.05;;;;;;;;;;5028784;28;20543;-78
2023/03/10 05:16:42;;;;;;;7.30;4.32;;;;;;;;;;5035904;28;20044;-78
2023/03/10 05:19:07;;;;;;;7.75;5.13;;;;;;;;;;5032438;28;20484;-78
2023/03/10 05:21:33;;;;;;;10.00;4.72;;;;;;;;;;5042047;28;20043;-78
2023/03/10 05:23:59;;;;;;;7.88;4.60;;;;;;;;;;5021186;28;20061;-77
2023/03/10 05:26:25;;;;;;;6.68;4.03;;;;;;;;;;5026652;28;20484;-79
2023/03/10 05:28:50;;;;;;;6.55;4.28;;;;;;;;;;5039672;28;20032;-78
2023/03/10 05:31:25;;;;;;;7.80;4.30;;;;;;;;;;5042165;28;20044;-78
2023/03/10 05:33:54;;;;;;;6.50;3.90;;;;;;;;;;5025602;28;20087;-78
2023/03/10 05:36:22;;;;;;;6.82;4.25;;;;;;;;;;5040229;28;20024;-78
2023/03/10 05:38:48;;;;;;;7.95;5.10;;;;;;;;;;5040994;28;20035;-78
2023/03/10 05:41:15;;;;;;;5.38;3.58;;;;;;;;;;5040365;28;20027;-78
2023/03/10 05:43:43;;;;;;;4.95;3.33;;;;;;;;;;5024941;28;20520;-78
2023/03/10 05:46:11;;;;;;;6.57;3.78;;;;;;;;;;5024156;28;20024;-79
2023/03/10 05:48:43;;;;;;;6.28;3.90;;;;;;;;;;5027059;28;20147;-76
2023/03/10 05:51:09;;;;;;;5.90;3.78;;;;;;;;;;5019317;28;20116;-78
2023/03/10 05:53:35;;;;;;;6.93;3.47;;;;;;;;;;5038936;28;20049;-79
2023/03/10 05:56:09;;;;;;;5.68;3.22;;;;;;;;;;5022715;28;20029;-78
2023/03/10 05:58:36;;;;;;;6.30;3.60;;;;;;;;;;5022151;28;20047;-77
2023/03/10 06:01:01;;;;;;;6.55;4.00;;;;;;;;;;5022587;28;20028;-80
2023/03/10 06:03:28;;;;;;;4.88;3.55;;;;;;;;;;5043497;28;20024;-79
2023/03/10 06:05:54;;;;;;;4.70;3.15;;;;;;;;;;5057372;28;20501;-78
2023/03/10 06:08:20;;;;;;;;;;;;;;;;;;5045247;28;20037;-78
2023/03/10 06:10:45;;;;;;;5.85;3.20;;;;;;;;;;5040380;28;20294;-78
2023/03/10 06:13:11;;;;;;;6.55;3.90;;;;;;;;;;5029019;28;20089;-78
2023/03/10 06:15:39;;;;;;;6.53;3.50;;;;;;;;;;5036471;28;20033;-79
2023/03/10 06:18:30;;;;;;;5.40;3.67;;;;;;;;;;5048293;28;20117;-78
2023/03/10 06:20:56;;;;;;;6.18;3.53;;;;;;;;;;5052474;28;20075;-78
2023/03/10 06:23:21;;;;;;;9.05;3.95;;;;;;;;;;5061257;28;20024;-79
2023/03/10 06:26:06;;;;;;;6.63;3.83;;;;;;;;;;5052337;28;20048;-78
2023/03/10 06:28:32;;;;;;;5.78;3.60;;;;;;;;;;5034899;28;20037;-79
2023/03/10 06:30:58;;;;;;;7.35;4.40;;;;;;;;;;5035093;28;20024;-78
2023/03/10 06:33:49;;;;;;;7.47;3.78;;;;;;;;;;5039604;28;20146;-78
2023/03/10 06:36:14;;;;;;;7.50;4.20;;;;;;;;;;5053447;28;20056;-80
2023/03/10 06:38:40;;;;;;;6.57;4.30;;;;;;;;;;5017677;28;20037;-79
2023/03/10 06:41:06;;;;;;;8.35;4.35;;;;;;;;;;5035694;28;20215;-79
2023/03/10 06:43:32;;;;;;;5.18;3.47;;;;;;;;;;5036713;28;20031;-78
2023/03/10 06:45:58;;;;;;;6.60;3.90;;;;;;;;;;5035933;28;20515;-78
2023/03/10 06:48:23;;;;;;;5.88;3.92;;;;;;;;;;5054338;28;20029;-78
2023/03/10 06:50:49;;;;;;;5.25;3.22;;;;;;;;;;5035909;28;20424;-79
2023/03/10 06:53:18;;;;;;;7.40;3.83;;;;;;;;;;5054552;28;20111;-79
2023/03/10 06:55:44;;;;;;;6.40;4.00;;;;;;;;;;5034228;28;20159;-79
2023/03/10 06:58:09;;;;;;;6.47;3.80;;;;;;;;;;5034225;28;20051;-78
2023/03/10 07:00:35;;;;;;;6.10;3.50;;;;;;;;;;5051814;28;20090;-79
2023/03/10 07:03:00;;;;;;;5.47;3.65;;;;;;;;;;5051766;28;20029;-78
2023/03/10 07:05:26;;;;;;;5.82;3.38;;;;;;;;;;5017704;28;20090;-78
2023/03/10 07:07:52;;;;;;;5.68;3.45;;;;;;;;;;5017465;28;20121;-77
2023/03/10 07:10:18;;;;;;;5.75;3.67;;;;;;;;;;5051551;28;20439;-79
2023/03/10 07:12:44;;;;;;;4.95;3.42;;;;;;;;;;5051244;28;20046;-78
2023/03/10 07:15:10;;;;;;;9.93;3.83;;;;;;;;;;5017205;28;20041;-79
2023/03/10 07:17:35;;;;;;;6.20;4.10;;;;;;;;;;5033588;28;20052;-79
2023/03/10 07:20:01;;;;;;;6.13;3.47;;;;;;;;;;5033717;28;20037;-79
2023/03/10 07:22:27;;;;;;;5.30;3.65;;;;;;;;;;5033610;28;20063;-79
2023/03/10 07:24:53;;;;;;;5.95;3.72;;;;;;;;;;5051469;28;20511;-78
2023/03/10 07:27:19;;;;;;;7.65;4.07;;;;;;;;;;5016797;28;20515;-78
2023/03/10 07:29:44;;;;;;;5.45;3.80;;;;;;;;;;5051443;28;20044;-79
2023/03/10 07:32:10;;;;;;;6.82;4.40;;;;;;;;;;5051266;28;20066;-78
2023/03/10 07:34:35;;;;;;;7.53;4.68;;;;;;;;;;5051531;28;20032;-79
2023/03/10 07:37:01;;;;;;;8.32;4.90;;;;;;;;;;5050503;28;20032;-78
2023/03/10 07:39:26;;;;;;;7.97;4.90;;;;;;;;;;5050911;28;20037;-78
2023/03/10 07:41:52;;;;;;;6.95;3.88;;;;;;;;;;5033329;28;20037;-78
2023/03/10 07:44:17;;;;;;;6.50;4.05;;;;;;;;;;5033273;28;20031;-79
2023/03/10 07:46:42;;;;;;;5.35;3.42;;;;;;;;;;5033331;28;20090;-77
2023/03/10 07:49:08;;;;;;;6.30;4.00;;;;;;;;;;5051113;28;20060;-77
2023/03/10 07:51:34;;;;;;;7.40;3.88;;;;;;;;;;5016419;28;20033;-77
2023/03/10 07:54:00;;;;;;;7.35;4.50;;;;;;;;;;5055539;28;20052;-79
2023/03/10 07:56:25;;;;;;;8.05;4.18;;;;;;;;;;5038691;28;20155;-77
2023/03/10 07:58:50;;;;;;;6.10;4.13;;;;;;;;;;5041078;28;20024;-77
2023/03/10 08:01:17;;;;;;;7.97;4.45;;;;;;;;;;5056060;28;20031;-79
2023/03/10 08:03:43;;;;;;;5.50;3.40;;;;;;;;;;5051149;28;20450;-78
2023/03/10 08:06:08;;;;;;;;;;;;;;;;;;5064824;28;20021;-76
2023/03/10 08:08:34;;;;;;;5.03;3.17;;;;;;;;;;5059016;28;19912;-79
2023/03/10 08:11:00;;;;;;;5.15;3.00;;;;;;;;;;5070065;28;20394;-79
2023/03/10 08:13:26;;;;;;;6.18;3.70;;;;;;;;;;5052365;28;20043;-76
2023/03/10 08:15:51;;;;;;;5.95;4.10;;;;;;;;;;5057377;28;20037;-78
2023/03/10 08:18:17;;;;;;;6.53;3.97;;;;;;;;;;5032962;28;20086;-77
2023/03/10 08:20:42;;;;;;;5.00;3.40;;;;;;;;;;5051321;28;20032;-78
2023/03/10 08:23:08;;;;;;;4.40;3.15;;;;;;;;;;5051279;28;20036;-78
2023/03/10 08:25:33;;;;;;;5.47;2.90;;;;;;;;;;5051250;28;20040;-76
2023/03/10 08:27:59;;;;;;;4.68;2.80;;;;;;;;;;5000582;28;20103;-79
2023/03/10 08:30:24;;;;;;;4.07;2.78;;;;;;;;;;5026647;28;20083;-78
2023/03/10 08:32:49;;;;;;;5.05;2.90;;;;;;;;;;5037892;28;20044;-79
2023/03/10 08:35:15;;;;;;;3.80;2.55;;;;;;;;;;5050595;28;20037;-77
2023/03/10 08:37:41;;;;;;;3.50;2.47;;;;;;;;;;5056677;28;20041;-79
2023/03/10 08:40:06;;;;;;;5.32;2.80;;;;;;;;;;5038808;28;20090;-78
2023/03/10 08:42:35;;;;;;;3.45;2.53;;;;;;;;;;5068566;28;20062;-79
2023/03/10 08:45:00;;;;;;;4.72;3.05;;;;;;;;;;5069641;28;20029;-79
2023/03/10 08:47:26;;;;;;;4.32;2.55;;;;;;;;;;5070440;28;20032;-78
2023/03/10 08:49:51;;;;;;;3.55;2.50;;;;;;;;;;5054833;28;20564;-79
2023/03/10 08:52:17;;;;;;;4.72;2.58;;;;;;;;;;5073748;28;20036;-77
2023/03/10 08:54:42;;;;;;;3.97;2.55;;;;;;;;;;5055480;28;20071;-79
2023/03/10 08:57:08;;;;;;;4.30;2.78;;;;;;;;;;5055414;28;20044;-79
2023/03/10 08:59:33;;;;;;;4.13;2.97;;;;;;;;;;5072915;28;20444;-78
2023/03/10 09:01:59;;;;;;;6.70;4.00;;;;;;;;;;5055237;28;20044;-78
2023/03/10 09:04:24;;;;;;;4.78;2.83;;;;;;;;;;5054869;28;20024;-78
2023/03/10 09:06:50;;;;;;;6.00;3.00;;;;;;;;;;5072988;28;20067;-81
2023/03/10 09:09:15;;;;;;;5.40;3.55;;;;;;;;;;5054947;28;20317;-78
2023/03/10 09:11:41;;;;;;;5.22;3.40;;;;;;;;;;5072310;28;20032;-79
2023/03/10 09:14:06;;;;;;;5.10;3.42;;;;;;;;;;5072439;28;20036;-78
2023/03/10 09:16:32;;;;;;;5.28;2.90;;;;;;;;;;5060765;28;20043;-78
2023/03/10 09:18:58;;;;;;;5.28;3.35;;;;;;;;;;5055121;28;20028;-78
2023/03/10 09:21:24;;;;;;;3.58;2.50;;;;;;;;;;5073253;28;20111;-78
2023/03/10 09:23:51;;;;;;;5.53;3.17;;;;;;;;;;5073792;28;20036;-78
2023/03/10 09:26:17;;;;;;;4.60;3.15;;;;;;;;;;5054532;28;20021;-78
2023/03/10 09:28:42;;;;;;;4.43;2.47;;;;;;;;;;5036562;28;20547;-78
2023/03/10 09:31:08;;;;;;;5.50;3.22;;;;;;;;;;5035879;28;20462;-80
2023/03/10 09:33:33;;;;;;;5.25;3.90;;;;;;;;;;5032062;28;20036;-78
2023/03/10 09:36:01;;;;;;;8.13;3.45;;;;;;;;;;5042771;28;20089;-80
2023/03/10 09:38:26;;;;;;;5.13;3.08;;;;;;;;;;5073783;28;20102;-80
2023/03/10 09:41:04;;;;;;;5.47;3.42;;;;;;;;;;5073190;28;20133;-79
2023/03/10 09:43:31;;;;;;;6.22;3.55;;;;;;;;;;5072008;28;20062;-78
2023/03/10 09:46:03;;;;;;;4.72;3.50;;;;;;;;;;5054966;28;20020;-77
2023/03/10 09:48:29;;;;;;;4.30;3.30;;;;;;;;;;5054671;28;20048;-78
2023/03/10 09:50:55;;;;;;;4.93;3.13;;;;;;;;;;5072660;28;20033;-78
2023/03/10 09:53:40;;;;;;;4.78;3.13;;;;;;;;;;5053462;28;20062;-77
2023/03/10 09:56:14;;;;;;;4.68;3.38;;;;;;;;;;5018387;28;20567;-79
2023/03/10 09:58:41;;;;;;;5.28;3.38;;;;;;;;;;5052883;28;20025;-79
2023/03/10 10:01:11;;;;;;;5.22;3.17;;;;;;;;;;5018003;28;20025;-78
2023/03/10 10:03:42;;;;;;;4.25;2.70;;;;;;;;;;5034977;28;20453;-78
2023/03/10 10:06:07;;;;;;;5.40;3.28;;;;;;;;;;5034675;28;20462;-78
2023/03/10 10:08:39;;;;;;;5.22;3.25;;;;;;;;;;5035014;28;20028;-77
2023/03/10 10:11:04;;;;;;;6.10;3.40;;;;;;;;;;5052452;28;20037;-78
2023/03/10 10:13:29;;;;;;;4.32;3.08;;;;;;;;;;5034815;28;20090;-77
2023/03/10 10:15:59;;;;;;;4.70;3.10;;;;;;;;;;5034243;28;20048;-77
2023/03/10 10:18:30;;;;;;;4.32;3.30;;;;;;;;;;5018070;28;20465;-77
2023/03/10 10:20:59;;;;;;;4.72;3.10;;;;;;;;;;5018067;28;20037;-79
2023/03/10 10:23:33;;;;;;;3.92;2.53;;;;;;;;;;5034440;28;20044;-79
2023/03/10 10:26:00;;;;;;;4.30;3.10;;;;;;;;;;5052133;28;20095;-78
2023/03/10 10:28:28;;;;;;;4.38;2.70;;;;;;;;;;5052212;28;20073;-78
2023/03/10 10:31:02;;;;;;;3.67;2.83;;;;;;;;;;5017490;28;20041;-77
2023/03/10 10:33:28;;;;;;;5.22;3.03;;;;;;;;;;5034314;28;20041;-78
2023/03/10 10:36:01;;;;;;;4.88;3.05;;;;;;;;;;5051736;28;20089;-78
2023/03/10 10:38:29;;;;;;;5.50;3.83;;;;;;;;;;5014040;28;20029;-77
2023/03/10 10:40:59;;;;;;;3.95;2.88;;;;;;;;;;5016643;28;20071;-77
2023/03/10 10:43:25;;;;;;;4.03;2.80;;;;;;;;;;5033820;28;20048;-77
2023/03/10 10:45:52;;;;;;;4.22;2.92;;;;;;;;;;5051737;28;20033;-77
2023/03/10 10:48:36;;;;;;;4.03;2.80;;;;;;;;;;5033722;28;20029;-77
2023/03/10 10:51:02;;;;;;;4.00;3.20;;;;;;;;;;5051622;28;20202;-78
2023/03/10 10:53:33;;;;;;;3.63;2.75;;;;;;;;;;5051246;28;20032;-78
2023/03/10 10:56:05;;;;;;;4.88;3.25;;;;;;;;;;5051457;28;20037;-77
2023/03/10 10:58:34;;;;;;;5.38;3.47;;;;;;;;;;5033746;28;20048;-77
2023/03/10 11:01:01;;;;;;;4.43;3.20;;;;;;;;;;5033417;28;20036;-77
2023/03/10 11:03:29;;;;;;;4.45;3.30;;;;;;;;;;5051442;28;20028;-77
2023/03/10 11:05:55;;;;;;;4.03;2.95;;;;;;;;;;5051289;28;20025;-77
2023/03/10 11:08:23;;;;;;;4.03;2.92;;;;;;;;;;5021269;28;20044;-77
2023/03/10 11:10:51;;;;;;;4.25;2.78;;;;;;;;;;5051267;28;20395;-77
2023/03/10 11:13:49;;;;;;;4.93;2.90;;;;;;;;;;5032537;28;20158;-79
2023/03/10 11:16:27;;;;;;;6.45;3.13;;;;;;;;;;4986292;28;20174;-77
2023/03/10 11:19:00;;;;;;;5.05;3.47;;;;;;;;;;5033370;28;20029;-77
2023/03/10 11:21:30;;;;;;;4.38;2.80;;;;;;;;;;5033513;28;20033;-78
2023/03/10 11:24:02;;;;;;;4.28;3.03;;;;;;;;;;5016881;28;20021;-76
2023/03/10 11:26:46;;;;;;;5.07;3.20;;;;;;;;;;5033359;28;20055;-76
2023/03/10 11:29:18;;;;;;;4.75;3.10;;;;;;;;;;5033353;28;20037;-78
2023/03/10 11:32:02;;;;;;;3.78;2.92;;;;;;;;;;5033131;28;20082;-77
2023/03/10 11:34:31;;;;;;;5.25;2.92;;;;;;;;;;5033034;28;20471;-78
2023/03/10 11:37:07;;;;;;;3.60;2.67;;;;;;;;;;5016399;28;20095;-78
2023/03/10 11:39:35;;;;;;;4.28;2.72;;;;;;;;;;5050845;28;20037;-76
2023/03/10 11:42:06;;;;;;;5.50;3.00;;;;;;;;;;5032874;28;20016;-77
2023/03/10 11:45:01;;;;;;;4.78;3.38;;;;;;;;;;5033152;28;20090;-77
2023/03/10 11:47:33;;;;;;;5.00;3.05;;;;;;;;;;4960565;28;20074;-77
2023/03/10 11:50:06;;;;;;;4.05;2.75;;;;;;;;;;5046377;28;20035;-77
2023/03/10 11:52:31;;;;;;;3.95;2.85;;;;;;;;;;5033098;28;20131;-76
2023/03/10 11:54:59;;;;;;;4.32;3.08;;;;;;;;;;5050289;28;20131;-76
2023/03/10 11:57:25;;;;;;;5.97;3.40;;;;;;;;;;5016278;28;20045;-77
2023/03/10 11:59:52;;;;;;;4.25;2.92;;;;;;;;;;5032649;28;20021;-79
2023/03/10 12:02:28;;;;;;;4.43;2.60;;;;;;;;;;5032975;28;20031;-77
2023/03/10 12:04:57;;;;;;;3.40;2.50;;;;;;;;;;5050913;28;20083;-78
2023/03/10 12:07:25;;;;;;;3.88;2.53;;;;;;;;;;5032974;28;20048;-76
2023/03/10 12:09:53;;;;;;;4.18;2.65;;;;;;;;;;5050357;28;20036;-77
2023/03/10 12:12:35;;;;;;;3.13;2.38;;;;;;;;;;5050651;28;20073;-78
2023/03/10 12:15:21;;;;;;;3.97;2.78;;;;;;;;;;5021503;28;20090;-77
2023/03/10 12:17:48;;;;;;;4.10;2.60;;;;;;;;;;5031981;28;20053;-77
2023/03/10 12:20:16;;;;;;;4.15;2.90;;;;;;;;;;5032964;28;20021;-77
2023/03/10 12:22:51;;;;;;;4.05;2.92;;;;;;;;;;5032355;28;20446;-78
2023/03/10 12:25:28;;;;;;;3.90;2.83;;;;;;;;;;5036230;28;20561;-78
2023/03/10 12:28:17;;;;;;;4.10;2.60;;;;;;;;;;5054341;28;20029;-76
2023/03/10 12:30:43;;;;;;;4.15;2.50;;;;;;;;;;5036239;28;20094;-76
2023/03/10 12:33:27;;;;;;;3.28;2.50;;;;;;;;;;5020174;28;20028;-77
2023/03/10 12:35:53;;;;;;;3.40;2.38;;;;;;;;;;5054380;28;20048;-75
2023/03/10 12:38:38;;;;;;;3.30;2.20;;;;;;;;;;5036441;28;20091;-77
2023/03/10 12:41:03;;;;;;;3.33;2.25;;;;;;;;;;5043153;28;20033;-78
2023/03/10 12:43:47;;;;;;;3.70;2.53;;;;;;;;;;5036133;28;20025;-77
2023/03/10 12:46:22;;;;;;;3.65;2.47;;;;;;;;;;5054131;28;20040;-76
2023/03/10 12:48:49;;;;;;;4.05;2.35;;;;;;;;;;5054061;28;20399;-76
2023/03/10 12:51:16;;;;;;;3.70;2.22;;;;;;;;;;5036530;28;20063;-77
2023/03/10 12:53:51;;;;;;;3.60;2.50;;;;;;;;;;5055696;28;20450;-77
2023/03/10 12:56:18;;;;;;;3.90;2.70;;;;;;;;;;5054996;28;20036;-77
2023/03/10 12:58:56;;;;;;;4.50;2.72;;;;;;;;;;5055482;28;20038;-76
2023/03/10 13:01:22;;;;;;;3.30;2.47;;;;;;;;;;5072308;28;20898;-77
2023/03/10 13:03:47;;;;;;;4.18;2.72;;;;;;;;;;5054841;28;20032;-76
2023/03/10 13:06:13;;;;;;;4.40;2.90;;;;;;;;;;5052984;28;20028;-77
2023/03/10 13:08:40;;;;;;;4.53;2.83;;;;;;;;;;5072555;28;20033;-76
2023/03/10 13:11:10;;;;;;;5.13;2.60;;;;;;;;;;5053183;28;20403;-76
2023/03/10 13:13:36;;;;;;;3.85;2.80;;;;;;;;;;5021447;28;20467;-75
2023/03/10 13:16:02;;;;;;;4.47;2.90;;;;;;;;;;5058240;28;20122;-75
2023/03/10 13:18:27;;;;;;;3.80;2.92;;;;;;;;;;5061775;28;20399;-75
2023/03/10 13:20:53;;;;;;;3.85;3.08;;;;;;;;;;5054639;28;20036;-76
2023/03/10 13:23:20;;;;;;;4.22;2.90;;;;;;;;;;5073074;28;20025;-78
2023/03/10 13:25:51;;;;;;;4.32;3.38;;;;;;;;;;5072377;28;20040;-76
2023/03/10 13:28:17;;;;;;;4.20;2.78;;;;;;;;;;5073139;28;20033;-77
2023/03/10 13:30:43;;;;;;;4.07;2.95;;;;;;;;;;5054398;28;20100;-75
2023/03/10 13:33:17;;;;;;;4.22;2.97;;;;;;;;;;5038829;28;20037;-76
2023/03/10 13:35:42;;;;;;;5.57;3.17;;;;;;;;;;5067531;28;20029;-77
2023/03/10 13:38:11;;;;;;;5.07;3.63;;;;;;;;;;5046287;28;20031;-76
2023/03/10 13:40:37;;;;;;;4.40;3.20;;;;;;;;;;5054491;28;20410;-76
2023/03/10 13:43:02;;;;;;;;;;;;;;;;;;5055284;28;20024;-76
2023/03/10 13:45:33;;;;;;;5.18;2.85;;;;;;;;;;5072478;28;20385;-76
2023/03/10 13:47:59;;;;;;;4.20;2.88;;;;;;;;;;5060922;28;20435;-76
2023/03/10 13:50:24;;;;;;;4.90;2.95;;;;;;;;;;5053009;28;20429;-77
2023/03/10 13:52:50;;;;;;;;;;;;;;;;;;5054661;28;20041;-75
2023/03/10 13:55:16;;;;;;;3.42;2.80;;;;;;;;;;5071826;28;19920;-77
2023/03/10 13:57:41;;;;;;;5.07;3.75;;;;;;;;;;5054672;28;20491;-75
2023/03/10 14:00:10;;;;;;;;;;;;;;;;;;5053965;28;20033;-76
2023/03/10 14:02:42;;;;;;;5.03;3.40;;;;;;;;;;5072215;28;20008;-78
2023/03/10 14:05:27;;;;;;;4.90;2.78;;;;;;;;;;5037357;28;20032;-75
2023/03/10 14:07:59;;;;;;;5.40;3.90;;;;;;;;;;5071853;28;20036;-78
2023/03/10 14:10:24;;;;;;;5.60;4.25;;;;;;;;;;5072356;28;20044;-75
2023/03/10 14:12:51;;;;;;;3.95;3.00;;;;;;;;;;5071793;28;20028;-76
2023/03/10 14:15:16;;;;;;;;;;;;;;;;;;5064950;28;20059;-76
2023/03/10 14:17:42;;;;;;;15.48;11.77;;;;;;;;;;5054084;28;20494;-76
2023/03/10 14:20:10;;;;;;;5.30;3.88;;;;;;;;;;5054567;28;20032;-76
2023/03/10 14:22:36;;;;;;;4.22;3.05;;;;;;;;;;5040581;28;20029;-75
2023/03/10 14:25:06;;;;;;;5.03;3.40;;;;;;;;;;5072026;28;20037;-78
2023/03/10 14:27:32;;;;;;;6.75;3.25;;;;;;;;;;5036942;28;20284;-76
2023/03/10 14:29:58;;;;;;;;;;;;;;;;;;5045373;28;20041;-75
2023/03/10 14:32:23;;;;;;;4.65;3.40;;;;;;;;;;5052009;28;19920;-78
2023/03/10 14:34:49;;;;;;;4.40;3.42;;;;;;;;;;5043681;28;20036;-76
2023/03/10 14:37:14;;;;;;;5.10;3.63;;;;;;;;;;5051083;28;20055;-77
2023/03/10 14:39:40;;;;;;;5.85;3.67;;;;;;;;;;5051745;28;20385;-77
2023/03/10 14:42:05;;;;;;;5.72;3.40;;;;;;;;;;5019922;28;20116;-77
2023/03/10 14:44:31;;;;;;;7.63;3.58;;;;;;;;;;5071507;28;20472;-75
2023/03/10 14:46:56;;;;;;;4.95;3.50;;;;;;;;;;5052139;28;20025;-76
2023/03/10 14:49:22;;;;;;;5.80;3.50;;;;;;;;;;5036163;28;20051;-77